Aviation Digital Data Service (ADDS)

Output produced by METARs form (0559 UTC 16 February 2019)
found at http://www.aviationweather.gov/metar/data/
 
METAR text: KMSP 160553Z 24004KT 10SM BKN250 M17/M19 A3016 RMK AO2 SLP235 4/012 T11671189 11111 21167 410941194 53005
Conditions at: KMSP (MINNEAPOLIS , MN, US) observed 0553 UTC 16 February 2019
Temperature: -16.7°C ( 2°F)
Dewpoint: -18.9°C (-2°F) [RH = 83%]
Pressure (altimeter): 30.16 inches Hg (1021.4 mb)
[Sea-level pressure: 1023.5 mb]
Winds: from the WSW (240 degrees) at 5 MPH (4 knots; 2.1 m/s)
Visibility: 10 or more miles (16+ km)
Ceiling: 25000 feet AGL
Clouds: broken clouds at 25000 feet AGL
Weather: no significant weather observed at this time

METAR text: KMSP 160453Z 00000KT 10SM SCT250 M16/M18 A3014 RMK AO2 SLP227 T11561183
Conditions at: KMSP (MINNEAPOLIS , MN, US) observed 0453 UTC 16 February 2019
Temperature: -15.6°C ( 4°F)
Dewpoint: -18.3°C (-1°F) [RH = 80%]
Pressure (altimeter): 30.14 inches Hg (1020.7 mb)
[Sea-level pressure: 1022.7 mb]
Winds: calm
Visibility: 10 or more miles (16+ km)
Ceiling: at least 12,000 feet AGL
Clouds: scattered clouds at 25000 feet AGL
Weather: no significant weather observed at this time

METAR text: KMSP 160353Z 26006KT 10SM FEW250 M14/M18 A3014 RMK AO2 SLP227 T11441178
Conditions at: KMSP (MINNEAPOLIS , MN, US) observed 0353 UTC 16 February 2019
Temperature: -14.4°C ( 6°F)
Dewpoint: -17.8°C (-0°F) [RH = 75%]
Pressure (altimeter): 30.14 inches Hg (1020.7 mb)
[Sea-level pressure: 1022.7 mb]
Winds: from the W (260 degrees) at 7 MPH (6 knots; 3.1 m/s)
Visibility: 10 or more miles (16+ km)
Ceiling: at least 12,000 feet AGL
Clouds: few clouds at 25000 feet AGL
Weather: no significant weather observed at this time

METAR text: KMSP 160253Z 30004KT 10SM FEW250 M14/M17 A3015 RMK AO2 SLP231 T11441172 50008
Conditions at: KMSP (MINNEAPOLIS , MN, US) observed 0253 UTC 16 February 2019
Temperature: -14.4°C ( 6°F)
Dewpoint: -17.2°C ( 1°F) [RH = 79%]
Pressure (altimeter): 30.15 inches Hg (1021.1 mb)
[Sea-level pressure: 1023.1 mb]
Winds: from the WNW (300 degrees) at 5 MPH (4 knots; 2.1 m/s)
Visibility: 10 or more miles (16+ km)
Ceiling: at least 12,000 feet AGL
Clouds: few clouds at 25000 feet AGL
Weather: no significant weather observed at this time

METAR text: KMSP 160153Z 28006KT 10SM FEW250 M13/M17 A3015 RMK AO2 SLP232 T11281172
Conditions at: KMSP (MINNEAPOLIS , MN, US) observed 0153 UTC 16 February 2019
Temperature: -12.8°C ( 9°F)
Dewpoint: -17.2°C ( 1°F) [RH = 70%]
Pressure (altimeter): 30.15 inches Hg (1021.1 mb)
[Sea-level pressure: 1023.2 mb]
Winds: from the W (280 degrees) at 7 MPH (6 knots; 3.1 m/s)
Visibility: 10 or more miles (16+ km)
Ceiling: at least 12,000 feet AGL
Clouds: few clouds at 25000 feet AGL
Weather: no significant weather observed at this time

METAR text: KMSP 160053Z 29004KT 10SM FEW250 M12/M17 A3014 RMK AO2 SLP229 T11171167
Conditions at: KMSP (MINNEAPOLIS , MN, US) observed 0053 UTC 16 February 2019
Temperature: -11.7°C (11°F)
Dewpoint: -16.7°C ( 2°F) [RH = 66%]
Pressure (altimeter): 30.14 inches Hg (1020.7 mb)
[Sea-level pressure: 1022.9 mb]
Winds: from the WNW (290 degrees) at 5 MPH (4 knots; 2.1 m/s)
Visibility: 10 or more miles (16+ km)
Ceiling: at least 12,000 feet AGL
Clouds: few clouds at 25000 feet AGL
Weather: no significant weather observed at this time

METAR text: KMSP 152353Z 32007KT 10SM FEW250 M11/M17 A3012 RMK AO2 SLP221 4/012 T11111167 11094 21122 53010
Conditions at: KMSP (MINNEAPOLIS , MN, US) observed 2353 UTC 15 February 2019
Temperature: -11.1°C (12°F)
Dewpoint: -16.7°C ( 2°F) [RH = 63%]
Pressure (altimeter): 30.12 inches Hg (1020.1 mb)
[Sea-level pressure: 1022.1 mb]
Winds: from the NW (320 degrees) at 8 MPH (7 knots; 3.6 m/s)
Visibility: 10 or more miles (16+ km)
Ceiling: at least 12,000 feet AGL
Clouds: few clouds at 25000 feet AGL
Weather: no significant weather observed at this time

METAR text: KMSP 152253Z 33008KT 10SM FEW250 M09/M16 A3010 RMK AO2 SLP213 T10941156
Conditions at: KMSP (MINNEAPOLIS , MN, US) observed 2253 UTC 15 February 2019
Temperature: -9.4°C (15°F)
Dewpoint: -15.6°C ( 4°F) [RH = 61%]
Pressure (altimeter): 30.10 inches Hg (1019.4 mb)
[Sea-level pressure: 1021.3 mb]
Winds: from the NNW (330 degrees) at 9 MPH (8 knots; 4.1 m/s)
Visibility: 10 or more miles (16+ km)
Ceiling: at least 12,000 feet AGL
Clouds: few clouds at 25000 feet AGL
Weather: no significant weather observed at this time

METAR text: KMSP 152153Z 31010KT 10SM FEW250 M10/M16 A3009 RMK AO2 SLP212 T11001161
Conditions at: KMSP (MINNEAPOLIS , MN, US) observed 2153 UTC 15 February 2019
Temperature: -10.0°C (14°F)
Dewpoint: -16.1°C ( 3°F) [RH = 61%]
Pressure (altimeter): 30.09 inches Hg (1019.0 mb)
[Sea-level pressure: 1021.2 mb]
Winds: from the NW (310 degrees) at 12 MPH (10 knots; 5.1 m/s)
Visibility: 10 or more miles (16+ km)
Ceiling: at least 12,000 feet AGL
Clouds: few clouds at 25000 feet AGL
Weather: no significant weather observed at this time

METAR text: KMSP 152053Z 29008KT 10SM FEW250 M11/M16 A3009 RMK AO2 SLP211 T11061161 51006
Conditions at: KMSP (MINNEAPOLIS , MN, US) observed 2053 UTC 15 February 2019
Temperature: -10.6°C (13°F)
Dewpoint: -16.1°C ( 3°F) [RH = 64%]
Pressure (altimeter): 30.09 inches Hg (1019.0 mb)
[Sea-level pressure: 1021.1 mb]
Winds: from the WNW (290 degrees) at 9 MPH (8 knots; 4.1 m/s)
Visibility: 10 or more miles (16+ km)
Ceiling: at least 12,000 feet AGL
Clouds: few clouds at 25000 feet AGL
Weather: no significant weather observed at this time

METAR text: KMSP 151953Z 27012KT 10SM FEW250 M11/M17 A3009 RMK AO2 SLP209 T11111172
Conditions at: KMSP (MINNEAPOLIS , MN, US) observed 1953 UTC 15 February 2019
Temperature: -11.1°C (12°F)
Dewpoint: -17.2°C ( 1°F) [RH = 61%]
Pressure (altimeter): 30.09 inches Hg (1019.0 mb)
[Sea-level pressure: 1020.9 mb]
Winds: from the W (270 degrees) at 14 MPH (12 knots; 6.2 m/s)
Visibility: 10 or more miles (16+ km)
Ceiling: at least 12,000 feet AGL
Clouds: few clouds at 25000 feet AGL
Weather: no significant weather observed at this time

METAR text: KMSP 151853Z 28011KT 10SM FEW250 M11/M17 A3008 RMK AO2 SLP208 T11111167
Conditions at: KMSP (MINNEAPOLIS , MN, US) observed 1853 UTC 15 February 2019
Temperature: -11.1°C (12°F)
Dewpoint: -16.7°C ( 2°F) [RH = 63%]
Pressure (altimeter): 30.08 inches Hg (1018.7 mb)
[Sea-level pressure: 1020.8 mb]
Winds: from the W (280 degrees) at 13 MPH (11 knots; 5.7 m/s)
Visibility: 10 or more miles (16+ km)
Ceiling: at least 12,000 feet AGL
Clouds: few clouds at 25000 feet AGL
Weather: no significant weather observed at this time

METAR text: KMSP 151753Z 28010KT 10SM CLR M12/M18 A3007 RMK AO2 SLP204 4/012 T11221178 11122 21194 53014
Conditions at: KMSP (MINNEAPOLIS , MN, US) observed 1753 UTC 15 February 2019
Temperature: -12.2°C (10°F)
Dewpoint: -17.8°C (-0°F) [RH = 63%]
Pressure (altimeter): 30.07 inches Hg (1018.4 mb)
[Sea-level pressure: 1020.4 mb]
Winds: from the W (280 degrees) at 12 MPH (10 knots; 5.1 m/s)
Visibility: 10 or more miles (16+ km)
Ceiling: at least 12,000 feet AGL
Clouds: sky clear below 12,000 feet AGL
Weather: no significant weather observed at this time

METAR text: KMSP 151653Z 30008KT 10SM CLR M13/M18 A3005 RMK AO2 SLP198 T11331183
Conditions at: KMSP (MINNEAPOLIS , MN, US) observed 1653 UTC 15 February 2019
Temperature: -13.3°C ( 8°F)
Dewpoint: -18.3°C (-1°F) [RH = 66%]
Pressure (altimeter): 30.05 inches Hg (1017.7 mb)
[Sea-level pressure: 1019.8 mb]
Winds: from the WNW (300 degrees) at 9 MPH (8 knots; 4.1 m/s)
Visibility: 10 or more miles (16+ km)
Ceiling: at least 12,000 feet AGL
Clouds: sky clear below 12,000 feet AGL
Weather: no significant weather observed at this time

METAR text: KMSP 151553Z 32008KT 10SM CLR M16/M19 A3004 RMK AO2 SLP194 T11561194
Conditions at: KMSP (MINNEAPOLIS , MN, US) observed 1553 UTC 15 February 2019
Temperature: -15.6°C ( 4°F)
Dewpoint: -19.4°C (-3°F) [RH = 73%]
Pressure (altimeter): 30.04 inches Hg (1017.4 mb)
[Sea-level pressure: 1019.4 mb]
Winds: from the NW (320 degrees) at 9 MPH (8 knots; 4.1 m/s)
Visibility: 10 or more miles (16+ km)
Ceiling: at least 12,000 feet AGL
Clouds: sky clear below 12,000 feet AGL
Weather: no significant weather observed at this time

METAR text: KMSP 151453Z 34010KT 10SM CLR M17/M21 A3003 RMK AO2 SLP191 T11721206 53010
Conditions at: KMSP (MINNEAPOLIS , MN, US) observed 1453 UTC 15 February 2019
Temperature: -17.2°C ( 1°F)
Dewpoint: -20.6°C (-5°F) [RH = 75%]
Pressure (altimeter): 30.03 inches Hg (1017.0 mb)
[Sea-level pressure: 1019.1 mb]
Winds: from the NNW (340 degrees) at 12 MPH (10 knots; 5.1 m/s)
Visibility: 10 or more miles (16+ km)
Ceiling: at least 12,000 feet AGL
Clouds: sky clear below 12,000 feet AGL
Weather: no significant weather observed at this time

METAR text: KMSP 151353Z 33011KT 10SM CLR M19/M22 A3001 RMK AO2 SLP184 T11891217
Conditions at: KMSP (MINNEAPOLIS , MN, US) observed 1353 UTC 15 February 2019
Temperature: -18.9°C (-2°F)
Dewpoint: -21.7°C (-7°F) [RH = 78%]
Pressure (altimeter): 30.01 inches Hg (1016.3 mb)
[Sea-level pressure: 1018.4 mb]
Winds: from the NNW (330 degrees) at 13 MPH (11 knots; 5.7 m/s)
Visibility: 10 or more miles (16+ km)
Ceiling: at least 12,000 feet AGL
Clouds: sky clear below 12,000 feet AGL
Weather: no significant weather observed at this time

METAR text: KMSP 151253Z 32008KT 10SM CLR M19/M22 A3000 RMK AO2 SLP182 T11941222
Conditions at: KMSP (MINNEAPOLIS , MN, US) observed 1253 UTC 15 February 2019
Temperature: -19.4°C (-3°F)
Dewpoint: -22.2°C (-8°F) [RH = 78%]
Pressure (altimeter): 30.00 inches Hg (1016.0 mb)
[Sea-level pressure: 1018.2 mb]
Winds: from the NW (320 degrees) at 9 MPH (8 knots; 4.1 m/s)
Visibility: 10 or more miles (16+ km)
Ceiling: at least 12,000 feet AGL
Clouds: sky clear below 12,000 feet AGL
Weather: no significant weather observed at this time

METAR text: KMSP 151153Z 31010KT 10SM CLR M19/M22 A3000 RMK AO2 SLP180 4/012 70002 T11941222 11172 21194 53005
Conditions at: KMSP (MINNEAPOLIS , MN, US) observed 1153 UTC 15 February 2019
Temperature: -19.4°C (-3°F)
Dewpoint: -22.2°C (-8°F) [RH = 78%]
Pressure (altimeter): 30.00 inches Hg (1016.0 mb)
[Sea-level pressure: 1018.0 mb]
Winds: from the NW (310 degrees) at 12 MPH (10 knots; 5.1 m/s)
Visibility: 10 or more miles (16+ km)
Ceiling: at least 12,000 feet AGL
Clouds: sky clear below 12,000 feet AGL
Weather: no significant weather observed at this time

METAR text: KMSP 151053Z 30009KT 10SM CLR M19/M22 A3000 RMK AO2 SLP179 T11891217
Conditions at: KMSP (MINNEAPOLIS , MN, US) observed 1053 UTC 15 February 2019
Temperature: -18.9°C (-2°F)
Dewpoint: -21.7°C (-7°F) [RH = 78%]
Pressure (altimeter): 30.00 inches Hg (1016.0 mb)
[Sea-level pressure: 1017.9 mb]
Winds: from the WNW (300 degrees) at 10 MPH (9 knots; 4.6 m/s)
Visibility: 10 or more miles (16+ km)
Ceiling: at least 12,000 feet AGL
Clouds: sky clear below 12,000 feet AGL
Weather: no significant weather observed at this time

METAR text: KMSP 150953Z 30008KT 10SM CLR M19/M22 A2998 RMK AO2 SLP172 T11941222
Conditions at: KMSP (MINNEAPOLIS , MN, US) observed 0953 UTC 15 February 2019
Temperature: -19.4°C (-3°F)
Dewpoint: -22.2°C (-8°F) [RH = 78%]
Pressure (altimeter): 29.98 inches Hg (1015.3 mb)
[Sea-level pressure: 1017.2 mb]
Winds: from the WNW (300 degrees) at 9 MPH (8 knots; 4.1 m/s)
Visibility: 10 or more miles (16+ km)
Ceiling: at least 12,000 feet AGL
Clouds: sky clear below 12,000 feet AGL
Weather: no significant weather observed at this time

METAR text: KMSP 150853Z 29008KT 10SM FEW011 M19/M22 A2998 RMK AO2 SLP173 T11891222 51020
Conditions at: KMSP (MINNEAPOLIS , MN, US) observed 0853 UTC 15 February 2019
Temperature: -18.9°C (-2°F)
Dewpoint: -22.2°C (-8°F) [RH = 75%]
Pressure (altimeter): 29.98 inches Hg (1015.3 mb)
[Sea-level pressure: 1017.3 mb]
Winds: from the WNW (290 degrees) at 9 MPH (8 knots; 4.1 m/s)
Visibility: 10 or more miles (16+ km)
Ceiling: at least 12,000 feet AGL
Clouds: few clouds at 1100 feet AGL
Weather: no significant weather observed at this time

METAR text: KMSP 150753Z 29011KT 10SM FEW011 M18/M22 A2998 RMK AO2 SLP170 T11831217
Conditions at: KMSP (MINNEAPOLIS , MN, US) observed 0753 UTC 15 February 2019
Temperature: -18.3°C (-1°F)
Dewpoint: -21.7°C (-7°F) [RH = 75%]
Pressure (altimeter): 29.98 inches Hg (1015.3 mb)
[Sea-level pressure: 1017.0 mb]
Winds: from the WNW (290 degrees) at 13 MPH (11 knots; 5.7 m/s)
Visibility: 10 or more miles (16+ km)
Ceiling: at least 12,000 feet AGL
Clouds: few clouds at 1100 feet AGL
Weather: no significant weather observed at this time

METAR text: KMSP 150653Z 30015KT 10SM FEW011 M18/M21 A2996 RMK AO2 SLP163 T11781211
Conditions at: KMSP (MINNEAPOLIS , MN, US) observed 0653 UTC 15 February 2019
Temperature: -17.8°C (-0°F)
Dewpoint: -21.1°C (-6°F) [RH = 75%]
Pressure (altimeter): 29.96 inches Hg (1014.6 mb)
[Sea-level pressure: 1016.3 mb]
Winds: from the WNW (300 degrees) at 17 MPH (15 knots; 7.7 m/s)
Visibility: 10 or more miles (16+ km)
Ceiling: at least 12,000 feet AGL
Clouds: few clouds at 1100 feet AGL
Weather: no significant weather observed at this time

METAR text: KMSP 150553Z 30017KT 10SM FEW011 M17/M21 A2992 RMK AO2 SLP151 4/012 T11721206 11117 21172 410441172 51022
Conditions at: KMSP (MINNEAPOLIS , MN, US) observed 0553 UTC 15 February 2019
Temperature: -17.2°C ( 1°F)
Dewpoint: -20.6°C (-5°F) [RH = 75%]
Pressure (altimeter): 29.92 inches Hg (1013.3 mb)
[Sea-level pressure: 1015.1 mb]
Winds: from the WNW (300 degrees) at 20 MPH (17 knots; 8.7 m/s)
Visibility: 10 or more miles (16+ km)
Ceiling: at least 12,000 feet AGL
Clouds: few clouds at 1100 feet AGL
Weather: no significant weather observed at this time

METAR text: KMSP 150453Z 32018KT 10SM FEW011 M17/M20 A2991 RMK AO2 PK WND 32026/0413 SLP147 T11671200
Conditions at: KMSP (MINNEAPOLIS , MN, US) observed 0453 UTC 15 February 2019
Temperature: -16.7°C ( 2°F)
Dewpoint: -20.0°C (-4°F) [RH = 76%]
Pressure (altimeter): 29.91 inches Hg (1013.0 mb)
[Sea-level pressure: 1014.7 mb]
Winds: from the NW (320 degrees) at 21 MPH (18 knots; 9.3 m/s)
Visibility: 10 or more miles (16+ km)
Ceiling: at least 12,000 feet AGL
Clouds: few clouds at 1100 feet AGL
Weather: no significant weather observed at this time

METAR text: KMSP 150353Z 31014KT 10SM CLR M16/M19 A2989 RMK AO2 PK WND 31026/0303 SLP140 T11561194
Conditions at: KMSP (MINNEAPOLIS , MN, US) observed 0353 UTC 15 February 2019
Temperature: -15.6°C ( 4°F)
Dewpoint: -19.4°C (-3°F) [RH = 73%]
Pressure (altimeter): 29.89 inches Hg (1012.3 mb)
[Sea-level pressure: 1014.0 mb]
Winds: from the NW (310 degrees) at 16 MPH (14 knots; 7.2 m/s)
Visibility: 10 or more miles (16+ km)
Ceiling: at least 12,000 feet AGL
Clouds: sky clear below 12,000 feet AGL
Weather: no significant weather observed at this time

METAR text: KMSP 150253Z 31015G25KT 10SM CLR M15/M19 A2986 RMK AO2 PK WND 32027/0217 SLP127 T11501189 51024
Conditions at: KMSP (MINNEAPOLIS , MN, US) observed 0253 UTC 15 February 2019
Temperature: -15.0°C ( 5°F)
Dewpoint: -18.9°C (-2°F) [RH = 72%]
Pressure (altimeter): 29.86 inches Hg (1011.3 mb)
[Sea-level pressure: 1012.7 mb]
Winds: from the NW (310 degrees) at 17 MPH (15 knots; 7.7 m/s)
gusting to 29 MPH (25 knots; 12.9 m/s)
Visibility: 10 or more miles (16+ km)
Ceiling: at least 12,000 feet AGL
Clouds: sky clear below 12,000 feet AGL
Weather: no significant weather observed at this time

METAR text: KMSP 150153Z 31017G26KT 10SM CLR M14/M18 A2984 RMK AO2 PK WND 30026/0057 SLP121 T11391183
Conditions at: KMSP (MINNEAPOLIS , MN, US) observed 0153 UTC 15 February 2019
Temperature: -13.9°C ( 7°F)
Dewpoint: -18.3°C (-1°F) [RH = 69%]
Pressure (altimeter): 29.84 inches Hg (1010.6 mb)
[Sea-level pressure: 1012.1 mb]
Winds: from the NW (310 degrees) at 20 MPH (17 knots; 8.7 m/s)
gusting to 30 MPH (26 knots; 13.4 m/s)
Visibility: 10 or more miles (16+ km)
Ceiling: at least 12,000 feet AGL
Clouds: sky clear below 12,000 feet AGL
Weather: no significant weather observed at this time

METAR text: KMSP 150053Z 31017G25KT 10SM CLR M13/M17 A2982 RMK AO2 PK WND 30027/0033 SLP114 T11281172
Conditions at: KMSP (MINNEAPOLIS , MN, US) observed 0053 UTC 15 February 2019
Temperature: -12.8°C ( 9°F)
Dewpoint: -17.2°C ( 1°F) [RH = 70%]
Pressure (altimeter): 29.82 inches Hg (1009.9 mb)
[Sea-level pressure: 1011.4 mb]
Winds: from the NW (310 degrees) at 20 MPH (17 knots; 8.7 m/s)
gusting to 29 MPH (25 knots; 12.9 m/s)
Visibility: 10 or more miles (16+ km)
Ceiling: at least 12,000 feet AGL
Clouds: sky clear below 12,000 feet AGL
Weather: no significant weather observed at this time

METAR text: KMSP 142353Z 32013G25KT 9SM CLR M12/M17 A2979 RMK AO2 PK WND 31028/2310 SLP102 DRSN 4/012 60002 T11171167 11050 21117 53033
Conditions at: KMSP (MINNEAPOLIS , MN, US) observed 2353 UTC 14 February 2019
Temperature: -11.7°C (11°F)
Dewpoint: -16.7°C ( 2°F) [RH = 66%]
Pressure (altimeter): 29.79 inches Hg (1008.9 mb)
[Sea-level pressure: 1010.2 mb]
Winds: from the NW (320 degrees) at 15 MPH (13 knots; 6.7 m/s)
gusting to 29 MPH (25 knots; 12.9 m/s)
Visibility: 9 miles (14 km)
Ceiling: at least 12,000 feet AGL
Clouds: sky clear below 12,000 feet AGL
Weather: no significant weather observed at this time

METAR text: KMSP 142253Z 32021G27KT 8SM FEW017 M11/M15 A2974 RMK AO2 PK WND 32031/2240 SLP086 SNE18 DRSN P0000 T11061150
Conditions at: KMSP (MINNEAPOLIS , MN, US) observed 2253 UTC 14 February 2019
Temperature: -10.6°C (13°F)
Dewpoint: -15.0°C ( 5°F) [RH = 70%]
Pressure (altimeter): 29.74 inches Hg (1007.2 mb)
[Sea-level pressure: 1008.6 mb]
Winds: from the NW (320 degrees) at 24 MPH (21 knots; 10.8 m/s)
gusting to 31 MPH (27 knots; 13.9 m/s)
Visibility: 8 miles (13 km)
Ceiling: at least 12,000 feet AGL
Clouds: few clouds at 1700 feet AGL
Weather: no significant weather observed at this time

METAR text: KMSP 142220Z 31015G28KT 8SM FEW009 SCT017 M11/M14 A2973 RMK AO2 PK WND 30028/2159 SNE18 P0000 T11061144
Conditions at: KMSP (MINNEAPOLIS , MN, US) observed 2220 UTC 14 February 2019
Temperature: -10.6°C (13°F)
Dewpoint: -14.4°C ( 6°F) [RH = 74%]
Pressure (altimeter): 29.73 inches Hg (1006.9 mb)
Winds: from the NW (310 degrees) at 17 MPH (15 knots; 7.7 m/s)
gusting to 32 MPH (28 knots; 14.4 m/s)
Visibility: 8 miles (13 km)
Ceiling: at least 12,000 feet AGL
Clouds: few clouds at 900 feet AGL
scattered clouds at 1700 feet AGL
Weather: no significant weather observed at this time

METAR text: KMSP 142153Z 32017KT 6SM -SN BKN017 M10/M13 A2972 RMK AO2 PK WND 31028/2143 SLP080 P0000 T11001128
Conditions at: KMSP (MINNEAPOLIS , MN, US) observed 2153 UTC 14 February 2019
Temperature: -10.0°C (14°F)
Dewpoint: -12.8°C ( 9°F) [RH = 80%]
Pressure (altimeter): 29.72 inches Hg (1006.5 mb)
[Sea-level pressure: 1008.0 mb]
Winds: from the NW (320 degrees) at 20 MPH (17 knots; 8.7 m/s)
Visibility: 6 miles (10 km)
Ceiling: 1700 feet AGL
Clouds: broken clouds at 1700 feet AGL
Weather: -SN  (light snow)

METAR text: KMSP 142143Z 31018G28KT 3SM -SN BR BKN015 OVC019 M10/M12 A2971 RMK AO2 PK WND 31028/2143 P0000 T11001122
Conditions at: KMSP (MINNEAPOLIS , MN, US) observed 2143 UTC 14 February 2019
Temperature: -10.0°C (14°F)
Dewpoint: -12.2°C (10°F) [RH = 84%]
Pressure (altimeter): 29.71 inches Hg (1006.2 mb)
Winds: from the NW (310 degrees) at 21 MPH (18 knots; 9.3 m/s)
gusting to 32 MPH (28 knots; 14.4 m/s)
Visibility: 3 miles ( 5 km)
Ceiling: 1500 feet AGL
Clouds: broken clouds at 1500 feet AGL
overcast cloud deck at 1900 feet AGL
Weather: -SN BR  (light snow, mist)

METAR text: KMSP 142107Z 30015G23KT 1SM R30L/5000VP6000FT -SN BR VV017 M09/M11 A2969 RMK AO2 P0000 T10941111
Conditions at: KMSP (MINNEAPOLIS , MN, US) observed 2107 UTC 14 February 2019
Temperature: -9.4°C (15°F)
Dewpoint: -11.1°C (12°F) [RH = 87%]
Pressure (altimeter): 29.69 inches Hg (1005.5 mb)
Winds: from the WNW (300 degrees) at 17 MPH (15 knots; 7.7 m/s)
gusting to 26 MPH (23 knots; 11.8 m/s)
Visibility: 1.00 miles (1.61 km)
Ceiling: indefinite ceiling with vertical visibility of 1700 feet AGL
Clouds: obscured sky
Weather: -SN BR  (light snow, mist)

METAR text: KMSP 142053Z 31019G26KT 1SM R30L/3000V4000FT -SN VV013 M09/M11 A2968 RMK AO2 PK WND 31026/2045 SLP067 P0002 60002 T10941106 53018
Conditions at: KMSP (MINNEAPOLIS , MN, US) observed 2053 UTC 14 February 2019
Temperature: -9.4°C (15°F)
Dewpoint: -10.6°C (13°F) [RH = 91%]
Pressure (altimeter): 29.68 inches Hg (1005.2 mb)
[Sea-level pressure: 1006.7 mb]
Winds: from the NW (310 degrees) at 22 MPH (19 knots; 9.8 m/s)
gusting to 30 MPH (26 knots; 13.4 m/s)
Visibility: 1.00 miles (1.61 km)
Ceiling: indefinite ceiling with vertical visibility of 1300 feet AGL
Clouds: obscured sky
Weather: -SN  (light snow)

METAR text: KMSP 142033Z 29016G24KT 3/4SM R30L/3000V5000FT -SN VV013 M08/M10 A2967 RMK AO2 TWR VIS 1 P0001 T10831100
Conditions at: KMSP (MINNEAPOLIS , MN, US) observed 2033 UTC 14 February 2019
Temperature: -8.3°C (17°F)
Dewpoint: -10.0°C (14°F) [RH = 88%]
Pressure (altimeter): 29.67 inches Hg (1004.8 mb)
Winds: from the WNW (290 degrees) at 18 MPH (16 knots; 8.2 m/s)
gusting to 28 MPH (24 knots; 12.3 m/s)
Visibility: 0.75 miles (1.21 km)
Ceiling: indefinite ceiling with vertical visibility of 1300 feet AGL
Clouds: obscured sky
Weather: -SN  (light snow)

METAR text: KMSP 142022Z 30014KT 1SM R30L/3500V4500FT -SN VV013 M07/M09 A2967 RMK AO2 P0001 T10721089
Conditions at: KMSP (MINNEAPOLIS , MN, US) observed 2022 UTC 14 February 2019
Temperature: -7.2°C (19°F)
Dewpoint: -8.9°C (16°F) [RH = 88%]
Pressure (altimeter): 29.67 inches Hg (1004.8 mb)
Winds: from the WNW (300 degrees) at 16 MPH (14 knots; 7.2 m/s)
Visibility: 1.00 miles (1.61 km)
Ceiling: indefinite ceiling with vertical visibility of 1300 feet AGL
Clouds: obscured sky
Weather: -SN  (light snow)

METAR text: KMSP 142019Z 31013G21KT 3/4SM R30L/3500V5000FT -SN VV013 M07/M09 A2967 RMK AO2 TWR VIS 1 P0001 T10721089
Conditions at: KMSP (MINNEAPOLIS , MN, US) observed 2019 UTC 14 February 2019
Temperature: -7.2°C (19°F)
Dewpoint: -8.9°C (16°F) [RH = 88%]
Pressure (altimeter): 29.67 inches Hg (1004.8 mb)
Winds: from the NW (310 degrees) at 15 MPH (13 knots; 6.7 m/s)
gusting to 24 MPH (21 knots; 10.8 m/s)
Visibility: 0.75 miles (1.21 km)
Ceiling: indefinite ceiling with vertical visibility of 1300 feet AGL
Clouds: obscured sky
Weather: -SN  (light snow)

METAR text: KMSP 142004Z 31013G22KT 3/4SM R30L/3500V4500FT -SN BKN018 BKN043 OVC055 M07/M09 A2966 RMK AO2 TWR VIS 1 P0000 T10671089
Conditions at: KMSP (MINNEAPOLIS , MN, US) observed 2004 UTC 14 February 2019
Temperature: -6.7°C (20°F)
Dewpoint: -8.9°C (16°F) [RH = 84%]
Pressure (altimeter): 29.66 inches Hg (1004.5 mb)
Winds: from the NW (310 degrees) at 15 MPH (13 knots; 6.7 m/s)
gusting to 25 MPH (22 knots; 11.3 m/s)
Visibility: 0.75 miles (1.21 km)
Ceiling: 1800 feet AGL
Clouds: broken clouds at 1800 feet AGL
broken clouds at 4300 feet AGL
overcast cloud deck at 5500 feet AGL
Weather: -SN  (light snow)

METAR text: KMSP 141955Z 32016G26KT 1SM R30L/4500VP6000FT -SN BKN026 BKN043 BKN055 M07/M09 A2965 RMK AO2 SFC VIS 1 1/4 P0000 T10671094
Conditions at: KMSP (MINNEAPOLIS , MN, US) observed 1955 UTC 14 February 2019
Temperature: -6.7°C (20°F)
Dewpoint: -9.4°C (15°F) [RH = 81%]
Pressure (altimeter): 29.65 inches Hg (1004.1 mb)
Winds: from the NW (320 degrees) at 18 MPH (16 knots; 8.2 m/s)
gusting to 30 MPH (26 knots; 13.4 m/s)
Visibility: 1.00 miles (1.61 km)
Ceiling: 2600 feet AGL
Clouds: broken clouds at 2600 feet AGL
broken clouds at 4300 feet AGL
broken clouds at 5500 feet AGL
Weather: -SN  (light snow)

METAR text: KMSP 141953Z 32017G26KT 1 3/4SM R30L/4500VP6000FT -SN BKN029 BKN043 OVC055 M07/M09 A2965 RMK AO2 PK WND 31026/1936 SLP055 SNB21 P0000 T10671094
Conditions at: KMSP (MINNEAPOLIS , MN, US) observed 1953 UTC 14 February 2019
Temperature: -6.7°C (20°F)
Dewpoint: -9.4°C (15°F) [RH = 81%]
Pressure (altimeter): 29.65 inches Hg (1004.1 mb)
[Sea-level pressure: 1005.5 mb]
Winds: from the NW (320 degrees) at 20 MPH (17 knots; 8.7 m/s)
gusting to 30 MPH (26 knots; 13.4 m/s)
Visibility: 1.75 miles (2.82 km)
Ceiling: 2900 feet AGL
Clouds: broken clouds at 2900 feet AGL
broken clouds at 4300 feet AGL
overcast cloud deck at 5500 feet AGL
Weather: -SN  (light snow)

METAR text: KMSP 141853Z 32012KT 7SM BKN100 BKN120 OVC250 M06/M09 A2963 RMK AO2 SLP046 T10561094
Conditions at: KMSP (MINNEAPOLIS , MN, US) observed 1853 UTC 14 February 2019
Temperature: -5.6°C (22°F)
Dewpoint: -9.4°C (15°F) [RH = 75%]
Pressure (altimeter): 29.63 inches Hg (1003.5 mb)
[Sea-level pressure: 1004.6 mb]
Winds: from the NW (320 degrees) at 14 MPH (12 knots; 6.2 m/s)
Visibility: 7 miles (11 km)
Ceiling: 10000 feet AGL
Clouds: broken clouds at 10000 feet AGL
broken clouds at 12000 feet AGL
overcast cloud deck at 25000 feet AGL
Weather: no significant weather observed at this time

Forecast for: KMSP (MINNEAPOLIS , MN, US)
Text: KMSP 160524Z 1606/1712 35003KT P6SM BKN200
Forecast period: 0600 to 1200 UTC 16 February 2019
Forecast type: FROM: standard forecast or significant change
Winds: from the N (350 degrees) at 3 MPH (3 knots; 1.5 m/s)
Visibility: 6 or more miles 10+ km)
Ceiling: 20000 feet AGL
Clouds: broken clouds at 20000 feet AGL
Weather: no significant weather forecast for this period
Text: FM161200 05004KT P6SM BKN150
Forecast period: 1200 to 1800 UTC 16 February 2019
Forecast type: FROM: standard forecast or significant change
Winds: from the NE (50 degrees) at 5 MPH (4 knots; 2.1 m/s)
Visibility: 6 or more miles 10+ km)
Ceiling: 15000 feet AGL
Clouds: broken clouds at 15000 feet AGL
Weather: no significant weather forecast for this period
Text: FM161800 10005KT P6SM FEW025 BKN120
Forecast period: 1800 UTC 16 February 2019 to 0200 UTC 17 February 2019
Forecast type: FROM: standard forecast or significant change
Winds: from the E (100 degrees) at 6 MPH (5 knots; 2.6 m/s)
Visibility: 6 or more miles 10+ km)
Ceiling: 12000 feet AGL
Clouds: few clouds at 2500 feet AGL
broken clouds at 12000 feet AGL
Weather: no significant weather forecast for this period
Text: FM170200 08007KT P6SM SCT020 OVC080
Forecast period: 0200 to 1200 UTC 17 February 2019
Forecast type: FROM: standard forecast or significant change
Winds: from the E (80 degrees) at 8 MPH (7 knots; 3.6 m/s)
Visibility: 6 or more miles 10+ km)
Ceiling: 8000 feet AGL
Clouds: scattered clouds at 2000 feet AGL
overcast cloud deck at 8000 feet AGL
Weather: no significant weather forecast for this period